createdAt,value
2019-02-06T00:02:12.887Z,102096.05
2019-02-06T00:04:43.169Z,102096.06
2019-02-06T00:07:13.521Z,102095.22
2019-02-06T00:09:43.841Z,102089.04
2019-02-06T00:12:14.093Z,102088.19
2019-02-06T00:14:44.535Z,102087.75
2019-02-06T00:17:14.936Z,102089.06
2019-02-06T00:19:45.285Z,102085.13
2019-02-06T00:22:15.543Z,102093.02
2019-02-06T00:24:45.812Z,102098.73
2019-02-06T00:27:16.083Z,102104.47
2019-02-06T00:29:46.361Z,102098.74
2019-02-06T00:32:16.633Z,102096.09
2019-02-06T00:34:46.907Z,102092.59
2019-02-06T00:37:17.174Z,102104.87
2019-02-06T00:39:47.465Z,102106.67
2019-02-06T00:42:18.136Z,102106.21
2019-02-06T00:44:48.428Z,102111.08
2019-02-06T00:47:18.708Z,102106.23
2019-02-06T00:49:48.991Z,102112.39
2019-02-06T00:52:19.254Z,102110.61
2019-02-06T00:54:49.685Z,102111.05
2019-02-06T00:57:19.996Z,102115.47
2019-02-06T00:59:50.214Z,102110.16
2019-02-06T01:02:20.467Z,102110.14
2019-02-06T01:04:50.724Z,102111.94
2019-02-06T01:07:20.995Z,102112.34
2019-02-06T01:09:51.535Z,102105.81
2019-02-06T01:12:21.863Z,102104.49
2019-02-06T01:14:52.154Z,102110.67
2019-02-06T01:17:22.411Z,102117.23
2019-02-06T01:19:52.674Z,102118.09
2019-02-06T01:22:22.923Z,102121.59
2019-02-06T01:24:53.490Z,102120.27
2019-02-06T01:27:23.739Z,102126.86
2019-02-06T01:29:54.017Z,102118.53
2019-02-06T01:32:24.279Z,102112.39
2019-02-06T01:34:54.565Z,102114.16
2019-02-06T01:37:24.824Z,102117.23
2019-02-06T01:39:55.251Z,102118.09
2019-02-06T01:42:25.501Z,102117.22
2019-02-06T01:44:55.794Z,102123.83
2019-02-06T01:47:26.085Z,102120.73
2019-02-06T01:49:56.361Z,102121.17
2019-02-06T01:52:26.627Z,102118.09
2019-02-06T01:54:57.448Z,102121.14
2019-02-06T01:57:27.716Z,102116.81
2019-02-06T01:59:57.998Z,102120.75
2019-02-06T02:02:28.286Z,102123.41
2019-02-06T02:04:59.643Z,102122.51
2019-02-06T02:07:29.901Z,102121.19
2019-02-06T02:10:00.350Z,102116.38
2019-02-06T02:12:30.659Z,102121.63
2019-02-06T02:15:00.936Z,102118.98
2019-02-06T02:17:31.528Z,102119.41
2019-02-06T02:20:01.882Z,102121.63
2019-02-06T02:22:32.496Z,102121.63
2019-02-06T02:25:02.838Z,102129.97
2019-02-06T02:27:33.090Z,102127.31
2019-02-06T02:30:05.571Z,102123.83
2019-02-06T02:32:35.908Z,102127.77
2019-02-06T02:35:07.969Z,102126.02
2019-02-06T02:37:38.224Z,102127.36
2019-02-06T02:40:11.615Z,102133.94
2019-02-06T02:42:41.916Z,102142.69
2019-02-06T02:45:14.799Z,102136.58
2019-02-06T02:47:45.444Z,102137.89
2019-02-06T02:50:15.705Z,102140.08
2019-02-06T02:52:45.964Z,102130.85
2019-02-06T02:55:16.303Z,102136.58
2019-02-06T02:57:46.547Z,102144.43
2019-02-06T03:00:22.082Z,102141.80
2019-02-06T03:03:10.137Z,102146.63
2019-02-06T03:05:40.399Z,102142.23
2019-02-06T03:08:10.796Z,102149.29
2019-02-06T03:10:41.064Z,102148.83
2019-02-06T03:13:11.331Z,102154.55
2019-02-06T03:15:41.581Z,102153.70
2019-02-06T03:18:11.840Z,102148.84
2019-02-06T03:20:42.094Z,102153.70
2019-02-06T03:23:12.350Z,102151.91
2019-02-06T03:25:43.092Z,102150.12
2019-02-06T03:28:13.359Z,102151.00
2019-02-06T03:30:43.824Z,102152.77
2019-02-06T03:33:14.059Z,102153.17
2019-02-06T03:35:44.337Z,102157.14
2019-02-06T03:38:14.610Z,102153.61
2019-02-06T03:40:45.068Z,102151.00
2019-02-06T03:43:15.326Z,102156.70
2019-02-06T03:45:45.601Z,102154.95
2019-02-06T03:48:15.863Z,102152.77
2019-02-06T03:50:46.119Z,102158.47
2019-02-06T03:53:16.399Z,102158.91
2019-02-06T03:55:46.663Z,102155.85
2019-02-06T03:58:16.922Z,102152.33
2019-02-06T04:00:47.191Z,102160.25
2019-02-06T04:03:17.706Z,102158.04
2019-02-06T04:05:47.971Z,102155.85
2019-02-06T04:08:18.623Z,102155.86
2019-02-06T04:10:48.896Z,102161.57
2019-02-06T04:13:19.178Z,102156.77
2019-02-06T04:15:49.506Z,102157.18
2019-02-06T04:18:19.780Z,102160.26
2019-02-06T04:20:50.027Z,102162.05
2019-02-06T04:23:20.462Z,102160.71
2019-02-06T04:25:50.712Z,102151.06
2019-02-06T04:28:21.014Z,102161.59
2019-02-06T04:30:51.270Z,102167.73
2019-02-06T04:33:21.538Z,102161.12
2019-02-06T04:35:51.807Z,102162.04
2019-02-06T04:38:22.056Z,102156.75
2019-02-06T04:40:52.426Z,102162.91
2019-02-06T04:43:22.658Z,102168.17
2019-02-06T04:45:52.987Z,102166.86
2019-02-06T04:48:23.245Z,102162.45
2019-02-06T04:50:53.874Z,102167.72
2019-02-06T04:53:24.125Z,102165.99
2019-02-06T04:55:54.512Z,102164.20
2019-02-06T04:58:24.785Z,102167.72
2019-02-06T05:00:55.034Z,102168.14
2019-02-06T05:03:25.934Z,102167.72
2019-02-06T05:05:56.327Z,102179.61
2019-02-06T05:08:27.668Z,102172.59
2019-02-06T05:10:57.924Z,102177.83
2019-02-06T05:13:28.171Z,102181.80
2019-02-06T05:15:58.453Z,102178.67
2019-02-06T05:18:28.787Z,102173.87
2019-02-06T05:20:59.031Z,102181.77
2019-02-06T05:23:29.306Z,102182.20
2019-02-06T05:25:59.561Z,102180.88
2019-02-06T05:28:29.836Z,102182.61
2019-02-06T05:31:00.112Z,102189.63
2019-02-06T05:33:30.795Z,102193.14
2019-02-06T05:36:01.049Z,102192.68
2019-02-06T05:38:32.406Z,102194.02
2019-02-06T05:41:02.664Z,102200.16
2019-02-06T05:43:33.101Z,102194.89
2019-02-06T05:46:03.372Z,102199.75
2019-02-06T05:48:34.019Z,102198.84
2019-02-06T05:51:04.264Z,102206.75
2019-02-06T05:53:34.574Z,102208.50
2019-02-06T05:56:06.343Z,102212.90
2019-02-06T05:58:36.809Z,102217.29
2019-02-06T06:01:07.105Z,102223.39
2019-02-06T06:03:37.357Z,102215.95
2019-02-06T06:06:07.611Z,102218.58
2019-02-06T06:08:37.888Z,102221.66
2019-02-06T06:11:08.166Z,102220.75
2019-02-06T06:13:38.528Z,102219.45
2019-02-06T06:16:08.778Z,102219.91
2019-02-06T06:18:39.063Z,102227.80
2019-02-06T06:21:09.322Z,102230.44
2019-02-06T06:23:39.590Z,102234.83
2019-02-06T06:26:09.990Z,102229.93
2019-02-06T06:28:40.327Z,102240.05
2019-02-06T06:31:10.577Z,102240.05
2019-02-06T06:33:41.817Z,102239.17
2019-02-06T06:36:12.070Z,102241.79
2019-02-06T06:38:42.342Z,102244.00
2019-02-06T06:41:14.153Z,102246.22
2019-02-06T06:43:44.407Z,102252.80
2019-02-06T06:46:14.938Z,102252.38
2019-02-06T06:48:45.210Z,102252.36
2019-02-06T06:51:15.481Z,102263.80
2019-02-06T06:53:45.819Z,102261.66
2019-02-06T06:56:16.079Z,102266.48
2019-02-06T06:58:46.400Z,102267.82
2019-02-06T07:01:16.649Z,102267.37
2019-02-06T07:03:47.099Z,102272.23
2019-02-06T07:06:17.381Z,102270.02
2019-02-06T07:08:47.645Z,102271.37
2019-02-06T07:11:17.904Z,102272.70
2019-02-06T07:13:51.447Z,102271.85
2019-02-06T07:16:20.622Z,102267.91
2019-02-06T07:18:50.880Z,102275.84
2019-02-06T07:21:21.150Z,102272.33
2019-02-06T07:23:52.953Z,102271.89
2019-02-06T07:26:23.207Z,102275.45
2019-02-06T07:28:53.534Z,102277.20
2019-02-06T07:31:23.953Z,102280.29
2019-02-06T07:33:54.293Z,102280.31
2019-02-06T07:36:24.611Z,102287.37
2019-02-06T07:38:54.875Z,102287.41
2019-02-06T07:41:25.499Z,102289.16
2019-02-06T07:43:56.362Z,102281.73
2019-02-06T07:46:26.640Z,102287.93
2019-02-06T07:48:56.927Z,102288.03
2019-02-06T07:51:27.183Z,102288.92
2019-02-06T07:53:58.541Z,102284.59
2019-02-06T07:56:29.033Z,102285.47
2019-02-06T07:58:59.298Z,102281.09
2019-02-06T08:01:29.552Z,102285.48
2019-02-06T08:03:59.853Z,102286.84
2019-02-06T08:06:30.271Z,102292.59
2019-02-06T08:09:00.537Z,102289.59
2019-02-06T08:11:31.957Z,102294.93
2019-02-06T08:14:02.226Z,102296.72
2019-02-06T08:16:32.488Z,102299.00
2019-02-06T08:19:02.795Z,102293.27
2019-02-06T08:21:33.056Z,102293.26
2019-02-06T08:24:03.616Z,102280.95
2019-02-06T08:26:33.930Z,102286.72
2019-02-06T08:29:04.289Z,102289.42
2019-02-06T08:31:34.620Z,102283.73
2019-02-06T08:34:04.902Z,102286.90
2019-02-06T08:36:35.152Z,102283.81
2019-02-06T08:39:07.434Z,102290.89
2019-02-06T08:41:37.691Z,102291.35
2019-02-06T08:44:07.984Z,102295.75
2019-02-06T08:46:38.226Z,102294.47
2019-02-06T08:49:10.896Z,102291.42
2019-02-06T08:51:40.434Z,102290.14
2019-02-06T08:54:10.714Z,102291.95
2019-02-06T08:56:40.965Z,102288.00
2019-02-06T08:59:11.411Z,102283.14
2019-02-06T09:01:41.662Z,102287.55
2019-02-06T09:04:16.934Z,102288.44
2019-02-06T09:06:47.179Z,102280.95
2019-02-06T09:09:17.443Z,102273.00
2019-02-06T09:11:47.780Z,102278.66
2019-02-06T09:14:18.060Z,102275.16
2019-02-06T09:16:48.299Z,102273.34
2019-02-06T09:19:18.945Z,102265.34
2019-02-06T09:21:49.209Z,102269.95
2019-02-06T09:24:19.488Z,102270.62
2019-02-06T09:26:49.743Z,102271.03
2019-02-06T09:29:20.017Z,102266.19
2019-02-06T09:31:50.264Z,102261.78
2019-02-06T09:34:21.607Z,102260.80
2019-02-06T09:36:52.655Z,102265.72
2019-02-06T09:39:24.469Z,102260.54
2019-02-06T09:41:54.724Z,102261.74
2019-02-06T09:44:25.061Z,102265.69
2019-02-06T09:46:55.715Z,102263.31
2019-02-06T09:49:26.057Z,102260.02
2019-02-06T09:51:56.878Z,102248.19
2019-02-06T09:54:27.142Z,102243.18
2019-02-06T09:56:57.387Z,102242.22
2019-02-06T09:59:27.649Z,102240.09
2019-02-06T10:01:59.463Z,102247.55
2019-02-06T10:04:29.725Z,102247.99
2019-02-06T10:07:00.047Z,102251.38
2019-02-06T10:09:30.307Z,102251.30
2019-02-06T10:12:00.574Z,102243.08
2019-02-06T10:14:32.432Z,102248.52
2019-02-06T10:17:02.689Z,102252.66
2019-02-06T10:19:33.284Z,102247.09
2019-02-06T10:22:04.761Z,102249.75
2019-02-06T10:24:35.111Z,102241.23
2019-02-06T10:27:05.371Z,102242.59
2019-02-06T10:29:35.852Z,102239.95
2019-02-06T10:32:06.102Z,102243.69
2019-02-06T10:34:36.383Z,102232.38
2019-02-06T10:37:06.650Z,102233.31
2019-02-06T10:39:36.913Z,102236.94
2019-02-06T10:42:07.386Z,102242.05
2019-02-06T10:44:37.635Z,102232.23
2019-02-06T10:47:07.893Z,102229.16
2019-02-06T10:49:39.140Z,102221.57
2019-02-06T10:52:09.462Z,102217.05
2019-02-06T10:54:39.750Z,102211.95
2019-02-06T10:57:10.384Z,102205.14
2019-02-06T10:59:41.619Z,102199.59
2019-02-06T11:02:12.869Z,102196.25
2019-02-06T11:04:43.148Z,102189.63
2019-02-06T11:07:13.406Z,102198.03
2019-02-06T11:09:46.514Z,102196.70
2019-02-06T11:12:16.501Z,102185.66
2019-02-06T11:14:47.740Z,102195.16
2019-02-06T11:17:18.010Z,102193.58
2019-02-06T11:19:48.284Z,102184.95
2019-02-06T11:22:18.549Z,102183.95
2019-02-06T11:24:49.088Z,102171.77
2019-02-06T11:27:19.340Z,102182.35
2019-02-06T11:29:49.614Z,102179.23
2019-02-06T11:32:19.863Z,102168.83
2019-02-06T11:34:50.144Z,102177.38
2019-02-06T11:37:21.186Z,102170.56
2019-02-06T11:39:57.933Z,102161.47
2019-02-06T11:42:23.445Z,102170.61
2019-02-06T11:44:53.705Z,102165.71
2019-02-06T11:47:24.028Z,102161.13
2019-02-06T11:49:55.947Z,102168.07
2019-02-06T11:52:26.373Z,102141.48
2019-02-06T11:54:56.634Z,102159.73
2019-02-06T11:57:26.894Z,102151.80
2019-02-06T11:59:57.207Z,102148.53
2019-02-06T12:02:37.015Z,102147.37
2019-02-06T12:05:00.637Z,102147.19
2019-02-06T12:07:31.203Z,102144.58
2019-02-06T12:10:09.499Z,102149.10
2019-02-06T12:12:33.756Z,102148.92
2019-02-06T12:15:12.455Z,102151.81
2019-02-06T12:17:42.988Z,102143.50
2019-02-06T12:20:20.706Z,102127.92
2019-02-06T12:22:51.154Z,102118.30
2019-02-06T12:25:21.454Z,102121.35
2019-02-06T12:27:54.927Z,102114.21
2019-02-06T12:30:28.168Z,102106.17
2019-02-06T12:32:58.493Z,102102.77
2019-02-06T12:35:30.150Z,102094.02
2019-02-06T12:38:01.287Z,102083.45
2019-02-06T12:40:31.609Z,102088.45
2019-02-06T12:43:01.910Z,102094.12
2019-02-06T12:45:33.982Z,102093.44
2019-02-06T12:48:04.674Z,102087.67
2019-02-06T12:50:34.961Z,102091.42
2019-02-06T12:53:05.207Z,102072.21
2019-02-06T12:55:41.788Z,102071.98
2019-02-06T12:58:12.033Z,102070.19
2019-02-06T13:00:44.298Z,102074.92
2019-02-06T13:03:14.555Z,102067.14
2019-02-06T13:05:44.829Z,102054.95
2019-02-06T13:08:17.225Z,102055.20
2019-02-06T13:10:48.362Z,102050.37
2019-02-06T13:13:18.898Z,102048.07
2019-02-06T13:15:49.261Z,102047.00
2019-02-06T13:18:19.694Z,102045.09
2019-02-06T13:20:51.491Z,102049.33
2019-02-06T13:23:22.863Z,102027.89
2019-02-06T13:25:53.613Z,102024.31
2019-02-06T13:28:23.895Z,102030.40
2019-02-06T13:30:56.857Z,102026.30
2019-02-06T13:33:27.096Z,102025.05
2019-02-06T13:35:57.491Z,102027.69
2019-02-06T13:38:28.544Z,102028.23
2019-02-06T13:40:58.816Z,102026.64
2019-02-06T13:43:29.074Z,102007.98
2019-02-06T13:45:59.344Z,102005.40
2019-02-06T13:48:29.678Z,102014.67
2019-02-06T13:50:59.948Z,102010.52
2019-02-06T13:53:30.385Z,102002.09
2019-02-06T13:56:00.719Z,101987.70
2019-02-06T13:58:30.983Z,101981.00
2019-02-06T14:01:01.278Z,101985.36
2019-02-06T14:03:31.523Z,101989.40
2019-02-06T14:06:01.816Z,101994.23
2019-02-06T14:08:33.371Z,101987.97
2019-02-06T14:11:03.805Z,101987.20
2019-02-06T14:13:34.080Z,101987.56
2019-02-06T14:16:05.563Z,101991.52
2019-02-06T14:18:35.825Z,101979.59
2019-02-06T14:21:06.380Z,101975.64
2019-02-06T14:23:39.893Z,101953.38
2019-02-06T14:26:22.145Z,101971.99
2019-02-06T14:29:28.968Z,101966.18
2019-02-06T14:32:08.538Z,101959.16
2019-02-06T14:34:50.826Z,101956.20
2019-02-06T14:37:36.320Z,101947.95
2019-02-06T14:40:21.856Z,101951.09
2019-02-06T14:43:10.764Z,101951.09
2019-02-06T14:46:12.754Z,101949.37
2019-02-06T14:48:51.673Z,101945.90
2019-02-06T14:51:50.146Z,101939.83
2019-02-06T14:54:26.663Z,101926.30
2019-02-06T14:57:18.297Z,101928.65
2019-02-06T15:00:03.517Z,101925.20
2019-02-06T15:03:03.634Z,101921.78
2019-02-06T15:05:40.030Z,101921.41
2019-02-06T15:08:41.163Z,101919.27
2019-02-06T15:11:22.237Z,101922.42
2019-02-06T15:14:04.572Z,101907.48
2019-02-06T15:16:41.049Z,101908.40
2019-02-06T15:19:19.826Z,101904.47
2019-02-06T15:22:11.917Z,101901.86
2019-02-06T15:24:51.479Z,101911.11
2019-02-06T15:27:25.017Z,101915.11
2019-02-06T15:29:58.726Z,101903.21
2019-02-06T15:32:41.224Z,101900.16
2019-02-06T15:35:18.016Z,101902.33
2019-02-06T15:38:26.775Z,101894.42
2019-02-06T15:41:33.173Z,101893.97
2019-02-06T15:44:09.767Z,101878.16
2019-02-06T15:46:45.795Z,101882.55
2019-02-06T15:49:25.297Z,101888.69
2019-02-06T15:52:15.238Z,101886.05
2019-02-06T15:54:48.784Z,101881.66
2019-02-06T15:57:22.405Z,101888.69
2019-02-06T16:00:10.988Z,101882.53
2019-02-06T16:02:59.586Z,101885.56
2019-02-06T16:05:55.715Z,101882.05
2019-02-06T16:08:29.214Z,101875.45
2019-02-06T16:11:20.893Z,101871.05
2019-02-06T16:14:17.358Z,101876.77
2019-02-06T16:17:27.376Z,101876.75
2019-02-06T16:20:16.160Z,101871.90
2019-02-06T16:23:16.929Z,101869.22
2019-02-06T16:26:14.603Z,101865.27
2019-02-06T16:29:10.219Z,101859.55
2019-02-06T16:31:44.086Z,101857.35
2019-02-06T16:34:38.780Z,101857.73
2019-02-06T16:37:30.644Z,101860.77
2019-02-06T16:40:30.392Z,101849.40
2019-02-06T16:43:25.804Z,101846.28
2019-02-06T16:46:03.665Z,101857.70
2019-02-06T16:48:39.929Z,101851.55
2019-02-06T16:51:16.528Z,101857.20
2019-02-06T16:53:55.908Z,101851.92
2019-02-06T16:56:38.371Z,101854.09
2019-02-06T16:59:12.153Z,101853.18
2019-02-06T17:01:51.838Z,101858.85
2019-02-06T17:04:29.435Z,101851.40
2019-02-06T17:07:05.650Z,101853.14
2019-02-06T17:09:42.813Z,101852.72
2019-02-06T17:12:28.302Z,101847.86
2019-02-06T17:15:13.682Z,101843.89
2019-02-06T17:17:59.766Z,101846.08
2019-02-06T17:28:02.298Z,101838.52
2019-02-06T17:30:50.210Z,101838.05
2019-02-06T17:37:54.374Z,101832.25
2019-02-06T17:40:49.283Z,101824.31
2019-02-06T17:43:39.063Z,101820.34
2019-02-06T17:46:28.177Z,101824.21
2019-02-06T17:49:11.459Z,101823.70
2019-02-06T17:51:56.866Z,101829.34
2019-02-06T17:54:59.842Z,101821.88
2019-02-06T17:57:30.117Z,101824.52
2019-02-06T18:00:01.041Z,101817.96
2019-02-06T18:02:32.374Z,101825.41
2019-02-06T18:05:06.239Z,101825.78
2019-02-06T18:07:36.960Z,101822.24
2019-02-06T18:10:16.468Z,101821.34
2019-02-06T18:12:47.144Z,101817.41
2019-02-06T18:15:17.548Z,101823.06
2019-02-06T18:17:47.976Z,101818.65
2019-02-06T18:20:18.393Z,101820.78
2019-02-06T18:22:49.237Z,101822.07
2019-02-06T18:25:19.975Z,101822.52
2019-02-06T18:27:50.636Z,101820.28
2019-02-06T18:30:23.526Z,101819.84
2019-02-06T18:32:55.097Z,101811.06
2019-02-06T18:35:25.741Z,101814.14
2019-02-06T18:37:56.590Z,101818.92
2019-02-06T18:40:27.693Z,101810.98
2019-02-06T18:42:58.871Z,101810.59
2019-02-06T18:45:29.191Z,101807.02
2019-02-06T18:48:02.803Z,101810.97
2019-02-06T18:50:38.077Z,101806.13
2019-02-06T18:53:08.954Z,101806.13
2019-02-06T18:55:40.059Z,101798.69
2019-02-06T18:58:12.189Z,101798.63
2019-02-06T19:00:44.509Z,101795.51
2019-02-06T19:03:23.104Z,101793.69
2019-02-06T19:05:53.600Z,101794.11
2019-02-06T19:08:25.654Z,101788.86
2019-02-06T19:10:56.573Z,101784.56
2019-02-06T19:13:29.386Z,101777.55
2019-02-06T19:16:01.176Z,101780.16
2019-02-06T19:18:32.368Z,101776.70
2019-02-06T19:21:05.410Z,101771.45
2019-02-06T19:23:37.367Z,101773.64
2019-02-06T19:26:19.855Z,101763.13
2019-02-06T19:28:51.657Z,101769.70
2019-02-06T19:31:25.412Z,101763.59
2019-02-06T19:33:56.621Z,101755.78
2019-02-06T19:36:27.339Z,101762.75
2019-02-06T19:38:58.526Z,101760.17
2019-02-06T19:41:30.397Z,101753.66
2019-02-06T19:44:00.674Z,101749.32
2019-02-06T19:46:31.056Z,101746.69
2019-02-06T19:49:01.926Z,101737.02
2019-02-06T19:51:36.831Z,101735.73
2019-02-06T19:54:08.835Z,101736.16
2019-02-06T19:56:39.279Z,101729.19
2019-02-06T19:59:10.735Z,101723.89
2019-02-06T20:01:43.379Z,101724.83
2019-02-06T20:04:15.902Z,101720.44
2019-02-06T20:06:47.101Z,101726.14
2019-02-06T20:09:22.074Z,101721.34
2019-02-06T20:11:56.159Z,101719.61
2019-02-06T20:14:26.726Z,101719.14
2019-02-06T20:16:57.152Z,101713.86
2019-02-06T20:19:27.700Z,101715.61
2019-02-06T20:21:57.974Z,101710.80
2019-02-06T20:24:28.239Z,101707.73
2019-02-06T20:26:58.647Z,101710.83
2019-02-06T20:29:29.107Z,101704.67
2019-02-06T20:31:59.705Z,101706.44
2019-02-06T20:34:31.515Z,101703.35
2019-02-06T20:37:01.942Z,101697.20
2019-02-06T20:39:32.202Z,101692.38
2019-02-06T20:42:02.532Z,101692.81
2019-02-06T20:44:33.357Z,101695.02
2019-02-06T20:47:03.712Z,101695.86
2019-02-06T20:49:34.343Z,101699.38
2019-02-06T20:52:04.745Z,101697.59
2019-02-06T20:54:35.408Z,101686.62
2019-02-06T20:57:13.683Z,101684.87
2019-02-06T20:59:38.173Z,101690.52
2019-02-06T21:02:09.022Z,101689.66
2019-02-06T21:04:39.569Z,101685.70
2019-02-06T21:07:10.119Z,101688.77
2019-02-06T21:09:40.747Z,101681.69
2019-02-06T21:12:12.899Z,101673.78
2019-02-06T21:14:44.800Z,101675.55
2019-02-06T21:17:17.790Z,101667.64
2019-02-06T21:19:48.458Z,101661.05
2019-02-06T21:22:21.142Z,101658.84
2019-02-06T21:24:51.732Z,101653.58
2019-02-06T21:27:24.433Z,101652.67
2019-02-06T21:29:57.757Z,101647.45
2019-02-06T21:32:30.825Z,101651.83
2019-02-06T21:35:01.472Z,101655.71
2019-02-06T21:37:33.779Z,101659.63
2019-02-06T21:40:13.320Z,101651.75
2019-02-06T21:42:47.850Z,101655.61
2019-02-06T21:45:19.641Z,101659.53
2019-02-06T21:47:50.591Z,101661.26
2019-02-06T21:50:26.991Z,101652.95
2019-02-06T21:52:58.035Z,101642.92
2019-02-06T21:55:28.609Z,101643.39
2019-02-06T21:57:59.165Z,101641.24
2019-02-06T22:00:33.730Z,101644.77
2019-02-06T22:03:04.214Z,101643.05
2019-02-06T22:05:34.803Z,101643.91
2019-02-06T22:08:05.674Z,101639.09
2019-02-06T22:10:36.003Z,101632.14
2019-02-06T22:13:06.469Z,101629.08
2019-02-06T22:15:36.760Z,101631.69
2019-02-06T22:18:07.020Z,101631.69
2019-02-06T22:20:37.372Z,101633.42
2019-02-06T22:23:07.652Z,101629.48
2019-02-06T22:25:37.905Z,101628.16
2019-02-06T22:28:08.172Z,101628.56
2019-02-06T22:30:38.561Z,101628.14
2019-02-06T22:33:09.118Z,101625.05
2019-02-06T22:35:39.382Z,101623.30
2019-02-06T22:38:09.648Z,101628.51
2019-02-06T22:40:39.985Z,101624.53
2019-02-06T22:43:10.264Z,101624.03
2019-02-06T22:45:40.534Z,101630.59
2019-02-06T22:48:11.587Z,101625.76
2019-02-06T22:50:41.951Z,101627.52
2019-02-06T22:53:12.224Z,101620.98
2019-02-06T22:55:42.504Z,101615.27
2019-02-06T22:58:12.786Z,101607.82
2019-02-06T23:01:02.120Z,101601.27
2019-02-06T23:03:37.004Z,101601.28
2019-02-06T23:06:07.537Z,101601.33
2019-02-06T23:08:39.860Z,101598.66
2019-02-06T23:11:10.147Z,101596.89
2019-02-06T23:13:42.040Z,101590.73
2019-02-06T23:16:12.322Z,101595.08
2019-02-06T23:18:42.651Z,101593.31
2019-02-06T23:21:12.941Z,101594.62
2019-02-06T23:23:43.201Z,101588.47
2019-02-06T23:26:13.566Z,101581.45
2019-02-06T23:28:43.837Z,101587.95
2019-02-06T23:31:14.118Z,101589.23
2019-02-06T23:33:45.154Z,101582.66
2019-02-06T23:36:15.706Z,101589.22
2019-02-06T23:38:45.988Z,101576.95
2019-02-06T23:41:16.266Z,101571.71
2019-02-06T23:43:46.570Z,101569.98
2019-02-06T23:46:16.838Z,101570.44
2019-02-06T23:48:48.133Z,101563.88
2019-02-06T23:51:20.718Z,101562.59
2019-02-06T23:53:52.047Z,101545.14
2019-02-06T23:56:22.325Z,101541.19
2019-02-06T23:58:52.656Z,101532.87
